Time,TemperatureF,DewpointF,PressureIn,WindDirection,WindDirectionDegrees,WindSpeedMPH,WindSpeedGustMPH,Humidity,HourlyPrecipIn,Conditions,Clouds,dailyrainin,SolarRadiationWatts/m^2,SoftwareType,DateUTC
2013-09-29 00:02:00,-999.0,-99.9,-100.00,NNW,335,0.0,0.0,-999,-99.99,,,-99.99,0.000000,,2013-09-29 04:02:00,
2013-09-29 00:44:00,49.0,48.0,-100.00,NNW,347,0.0,0.0,97,0.00,,,0.00,0.000000,,2013-09-29 04:44:00,
2013-09-29 00:54:00,49.0,48.0,-100.00,NNW,347,0.0,0.0,97,0.00,,,0.00,0.000000,,2013-09-29 04:54:00,
2013-09-29 01:03:00,49.0,48.0,-100.00,NNW,347,0.0,0.0,97,0.00,,,0.00,0.000000,,2013-09-29 05:03:00,
2013-09-29 01:43:00,48.0,47.0,-100.00,North,7,0.0,0.0,98,0.00,,,0.00,0.000000,,2013-09-29 05:43:00,
2013-09-29 01:53:00,48.0,47.0,-100.00,North,7,0.0,0.0,98,0.00,,,0.00,0.000000,,2013-09-29 05:53:00,
2013-09-29 02:03:00,48.0,47.0,-100.00,North,7,0.0,0.0,98,0.00,,,0.00,0.000000,,2013-09-29 06:03:00,
2013-09-29 02:42:00,48.0,47.0,-100.00,NNE,23,0.0,0.0,98,0.00,,,0.00,0.000000,,2013-09-29 06:42:00,
2013-09-29 02:52:00,48.0,47.0,-100.00,NNE,23,0.0,0.0,98,0.00,,,0.00,0.000000,,2013-09-29 06:52:00,
2013-09-29 03:02:00,48.0,47.0,-100.00,NNE,23,0.0,0.0,98,0.00,,,0.00,0.000000,,2013-09-29 07:02:00,
2013-09-29 03:43:00,47.0,46.0,-100.00,North,7,1.0,4.0,98,0.00,,,0.00,0.000000,,2013-09-29 07:43:00,
2013-09-29 03:52:00,47.0,46.0,-100.00,North,7,1.0,4.0,98,0.00,,,0.00,0.000000,,2013-09-29 07:52:00,
2013-09-29 04:02:00,47.0,46.0,-100.00,North,7,1.0,4.0,98,0.00,,,0.00,0.000000,,2013-09-29 08:02:00,
2013-09-29 04:42:00,46.0,45.0,-100.00,North,356,1.0,3.0,98,0.00,,,0.00,0.000000,,2013-09-29 08:42:00,
2013-09-29 04:52:00,46.0,45.0,-100.00,North,356,1.0,3.0,98,0.00,,,0.00,0.000000,,2013-09-29 08:52:00,
2013-09-29 05:02:00,46.0,45.0,-100.00,North,356,1.0,3.0,98,0.00,,,0.00,0.000000,,2013-09-29 09:02:00,
2013-09-29 05:43:00,46.0,45.0,-100.00,NNW,338,1.0,4.0,98,0.00,,,-99.99,0.000000,,2013-09-29 09:43:00,
2013-09-29 05:54:00,46.0,45.0,-100.00,NNW,338,1.0,4.0,98,0.00,,,-99.99,0.000000,,2013-09-29 09:54:00,
2013-09-29 06:03:00,46.0,45.0,-100.00,NNW,338,1.0,4.0,98,0.00,,,-99.99,0.000000,,2013-09-29 10:03:00,
2013-09-29 06:43:00,45.0,44.0,-100.00,NNE,32,0.0,3.0,98,0.00,,,0.00,0.000000,,2013-09-29 10:43:00,
2013-09-29 06:53:00,45.0,44.0,-100.00,NNE,32,0.0,3.0,98,0.00,,,0.00,0.000000,,2013-09-29 10:53:00,
2013-09-29 07:03:00,45.0,44.0,-100.00,NNE,32,0.0,3.0,98,0.00,,,0.00,0.000000,,2013-09-29 11:03:00,
2013-09-29 07:42:00,44.0,44.0,-100.00,NNW,347,1.0,2.0,99,0.00,,,0.00,1.000000,,2013-09-29 11:42:00,
2013-09-29 07:52:00,44.0,44.0,-100.00,NNW,347,1.0,2.0,99,0.00,,,0.00,1.000000,,2013-09-29 11:52:00,
2013-09-29 08:01:00,44.0,44.0,-100.00,NNW,347,1.0,2.0,99,0.00,,,0.00,1.000000,,2013-09-29 12:01:00,
2013-09-29 08:42:00,45.0,45.0,-100.00,NNE,30,0.0,2.0,99,0.00,,,0.00,14.000000,,2013-09-29 12:42:00,
2013-09-29 08:52:00,45.0,45.0,-100.00,NNE,30,0.0,2.0,99,0.00,,,0.00,14.000000,,2013-09-29 12:52:00,
2013-09-29 09:02:00,45.0,45.0,-100.00,NNE,30,0.0,2.0,99,0.00,,,0.00,14.000000,,2013-09-29 13:02:00,
2013-09-29 11:45:00,65.0,48.0,-100.00,SSW,192,4.0,8.0,54,0.00,,,-99.99,524.000000,,2013-09-29 15:45:00,
2013-09-29 11:55:00,65.0,48.0,-100.00,SSW,192,4.0,8.0,54,0.00,,,-99.99,524.000000,,2013-09-29 15:55:00,
2013-09-29 12:05:00,65.0,48.0,-100.00,SSW,192,4.0,8.0,54,0.00,,,-99.99,524.000000,,2013-09-29 16:05:00,
2013-09-29 12:44:00,66.0,46.0,-100.00,SE,141,3.0,9.0,49,0.00,,,0.00,631.000000,,2013-09-29 16:44:00,
2013-09-29 12:54:00,66.0,46.0,-100.00,SE,141,3.0,9.0,49,0.00,,,0.00,631.000000,,2013-09-29 16:54:00,
2013-09-29 13:03:00,66.0,46.0,-100.00,SE,141,3.0,9.0,49,0.00,,,0.00,631.000000,,2013-09-29 17:03:00,
2013-09-29 13:43:00,67.0,47.0,-100.00,SSE,158,4.0,10.0,49,0.00,,,0.00,688.000000,,2013-09-29 17:43:00,
2013-09-29 13:52:00,67.0,47.0,-100.00,SSE,158,4.0,10.0,49,0.00,,,0.00,688.000000,,2013-09-29 17:52:00,
2013-09-29 14:02:00,67.0,47.0,-100.00,SSE,158,4.0,10.0,49,0.00,,,0.00,688.000000,,2013-09-29 18:02:00,
2013-09-29 14:42:00,68.0,48.0,-100.00,South,169,5.0,11.0,49,0.00,,,0.00,680.000000,,2013-09-29 18:42:00,
2013-09-29 14:52:00,68.0,48.0,-100.00,South,169,5.0,11.0,49,0.00,,,0.00,680.000000,,2013-09-29 18:52:00,
2013-09-29 15:02:00,68.0,48.0,-100.00,South,169,5.0,11.0,49,0.00,,,0.00,680.000000,,2013-09-29 19:02:00,
2013-09-29 15:42:00,69.0,48.0,-100.00,SE,131,4.0,10.0,47,0.00,,,0.00,614.000000,,2013-09-29 19:42:00,
2013-09-29 15:52:00,69.0,48.0,-100.00,SE,131,4.0,10.0,47,0.00,,,0.00,614.000000,,2013-09-29 19:52:00,
2013-09-29 16:02:00,69.0,48.0,-100.00,SE,131,4.0,10.0,47,0.00,,,0.00,614.000000,,2013-09-29 20:02:00,
2013-09-29 16:43:00,68.0,46.0,-100.00,SSE,164,3.0,11.0,46,0.00,,,0.00,515.000000,,2013-09-29 20:43:00,
2013-09-29 16:52:00,68.0,46.0,-100.00,SSE,164,3.0,11.0,46,0.00,,,0.00,515.000000,,2013-09-29 20:52:00,
2013-09-29 17:02:00,68.0,46.0,-100.00,SSE,164,3.0,11.0,46,0.00,,,0.00,515.000000,,2013-09-29 21:02:00,
2013-09-29 17:44:00,67.0,46.0,-100.00,SE,138,3.0,8.0,46,0.00,,,0.00,374.000000,,2013-09-29 21:44:00,
2013-09-29 17:55:00,67.0,46.0,-100.00,SE,138,3.0,8.0,46,0.00,,,0.00,374.000000,,2013-09-29 21:55:00,
2013-09-29 18:04:00,67.0,46.0,-100.00,SE,138,3.0,8.0,46,0.00,,,0.00,374.000000,,2013-09-29 22:04:00,
2013-09-29 18:43:00,60.0,45.0,-100.00,NE,47,1.0,6.0,58,0.00,,,0.00,94.000000,,2013-09-29 22:43:00,
2013-09-29 18:53:00,60.0,45.0,-100.00,NE,47,1.0,6.0,58,0.00,,,0.00,94.000000,,2013-09-29 22:53:00,
2013-09-29 19:03:00,60.0,45.0,-100.00,NE,47,1.0,6.0,58,0.00,,,0.00,94.000000,,2013-09-29 23:03:00,
2013-09-29 19:43:00,56.0,46.0,-100.00,North,349,1.0,4.0,69,0.00,,,0.00,25.000000,,2013-09-29 23:43:00,
2013-09-29 19:53:00,56.0,46.0,-100.00,North,349,1.0,4.0,69,0.00,,,0.00,25.000000,,2013-09-29 23:53:00,
2013-09-29 20:02:00,56.0,46.0,-100.00,North,349,1.0,4.0,69,0.00,,,0.00,25.000000,,2013-09-30 00:02:00,
2013-09-29 20:42:00,53.0,46.0,-100.00,NNW,343,2.0,3.0,78,0.00,,,0.00,0.000000,,2013-09-30 00:42:00,
2013-09-29 20:52:00,53.0,46.0,-100.00,NNW,343,2.0,3.0,78,0.00,,,0.00,0.000000,,2013-09-30 00:52:00,
2013-09-29 21:02:00,53.0,46.0,-100.00,NNW,343,2.0,3.0,78,0.00,,,0.00,0.000000,,2013-09-30 01:02:00,
2013-09-29 21:42:00,52.0,46.0,-100.00,NW,323,0.0,3.0,81,0.00,,,0.00,0.000000,,2013-09-30 01:42:00,
2013-09-29 21:52:00,52.0,46.0,-100.00,NW,323,0.0,3.0,81,0.00,,,0.00,0.000000,,2013-09-30 01:52:00,
2013-09-29 22:02:00,52.0,46.0,-100.00,NW,323,0.0,3.0,81,0.00,,,0.00,0.000000,,2013-09-30 02:02:00,
2013-09-29 22:42:00,50.0,46.0,-100.00,WNW,300,1.0,2.0,87,0.00,,,0.00,0.000000,,2013-09-30 02:42:00,
2013-09-29 22:52:00,50.0,46.0,-100.00,WNW,300,1.0,2.0,87,0.00,,,0.00,0.000000,,2013-09-30 02:52:00,
2013-09-29 23:02:00,50.0,46.0,-100.00,WNW,300,1.0,2.0,87,0.00,,,0.00,0.000000,,2013-09-30 03:02:00,
2013-09-29 23:45:00,49.0,46.0,-100.00,WNW,293,0.0,2.0,90,0.00,,,0.00,0.000000,,2013-09-30 03:45:00,
2013-09-29 23:55:00,49.0,46.0,-100.00,WNW,293,0.0,2.0,90,0.00,,,0.00,0.000000,,2013-09-30 03:55:00,